createdAt,value
2023-05-14T00:01:01.951Z,101235.50
2023-05-14T00:03:28.423Z,101233.03
2023-05-14T00:05:54.842Z,101237.38
2023-05-14T00:08:21.275Z,101240.69
2023-05-14T00:10:47.628Z,101229.19
2023-05-14T00:13:13.979Z,101235.13
2023-05-14T00:15:41.769Z,101231.59
2023-05-14T00:18:08.288Z,101241.03
2023-05-14T00:20:34.724Z,101240.81
2023-05-14T00:23:01.130Z,101234.69
2023-05-14T00:25:28.188Z,101229.63
2023-05-14T00:27:54.563Z,101233.47
2023-05-14T00:30:22.523Z,101223.44
2023-05-14T00:32:50.553Z,101225.66
2023-05-14T00:35:17.025Z,101219.56
2023-05-14T00:37:43.429Z,101222.00
2023-05-14T00:40:10.986Z,101220.03
2023-05-14T00:42:37.396Z,101216.72
2023-05-14T00:45:04.805Z,101222.00
2023-05-14T00:47:31.600Z,101215.28
2023-05-14T00:49:59.308Z,101213.84
2023-05-14T00:52:25.749Z,101225.16
2023-05-14T00:54:52.152Z,101223.03
2023-05-14T00:57:18.746Z,101224.88
2023-05-14T00:59:45.282Z,101228.00
2023-05-14T01:02:11.666Z,101227.88
2023-05-14T01:04:38.610Z,101226.31
2023-05-14T01:07:16.719Z,101221.28
2023-05-14T01:09:49.735Z,101227.19
2023-05-14T01:12:21.161Z,101228.41
2023-05-14T01:14:56.705Z,101223.00
2023-05-14T01:17:26.937Z,101221.84
2023-05-14T01:19:54.953Z,101224.53
2023-05-14T01:22:22.625Z,101228.53
2023-05-14T01:24:49.096Z,101230.00
2023-05-14T01:27:18.021Z,101232.09
2023-05-14T01:29:49.727Z,101242.13
2023-05-14T01:32:17.575Z,101227.56
2023-05-14T01:34:47.056Z,101224.78
2023-05-14T01:37:14.243Z,101228.41
2023-05-14T01:39:42.478Z,101227.06
2023-05-14T01:42:09.593Z,101227.44
2023-05-14T01:44:36.406Z,101223.97
2023-05-14T01:47:02.772Z,101222.50
2023-05-14T01:49:29.129Z,101222.72
2023-05-14T01:51:55.653Z,101219.41
2023-05-14T01:54:21.995Z,101223.13
2023-05-14T01:56:49.692Z,101223.72
2023-05-14T01:59:16.080Z,101220.78
2023-05-14T02:01:42.504Z,101223.13
2023-05-14T02:04:08.939Z,101219.50
2023-05-14T02:06:35.509Z,101217.94
2023-05-14T02:09:02.184Z,101220.13
2023-05-14T02:11:28.552Z,101218.81
2023-05-14T02:13:56.247Z,101213.00
2023-05-14T02:16:22.744Z,101218.91
2023-05-14T02:18:49.195Z,101208.25
2023-05-14T02:21:15.556Z,101212.47
2023-05-14T02:23:42.337Z,101207.00
2023-05-14T02:26:09.240Z,101199.56
2023-05-14T02:28:35.617Z,101204.13
2023-05-14T02:31:03.442Z,101193.81
2023-05-14T02:33:29.972Z,101198.34
2023-05-14T02:35:56.418Z,101201.44
2023-05-14T02:38:23.269Z,101196.78
2023-05-14T02:40:49.626Z,101195.13
2023-05-14T02:43:15.991Z,101199.03
2023-05-14T02:45:42.364Z,101200.13
2023-05-14T02:48:10.196Z,101192.13
2023-05-14T02:50:36.604Z,101199.16
2023-05-14T02:53:03.046Z,101192.78
2023-05-14T02:55:29.474Z,101200.13
2023-05-14T02:57:55.831Z,101196.78
2023-05-14T03:00:22.684Z,101198.66
2023-05-14T03:02:49.714Z,101198.44
2023-05-14T03:05:17.895Z,101197.44
2023-05-14T03:07:44.275Z,101197.19
2023-05-14T03:10:10.791Z,101190.00
2023-05-14T03:12:37.220Z,101182.84
2023-05-14T03:15:04.089Z,101193.34
2023-05-14T03:17:30.501Z,101191.06
2023-05-14T03:19:56.954Z,101194.03
2023-05-14T03:22:25.091Z,101195.91
2023-05-14T03:24:51.489Z,101190.88
2023-05-14T03:27:17.858Z,101190.69
2023-05-14T03:29:44.211Z,101195.88
2023-05-14T03:32:10.630Z,101193.88
2023-05-14T03:34:37.078Z,101192.34
2023-05-14T03:37:03.836Z,101198.50
2023-05-14T03:39:31.514Z,101194.94
2023-05-14T03:41:57.905Z,101198.50
2023-05-14T03:44:24.313Z,101191.44
2023-05-14T03:46:50.674Z,101193.28
2023-05-14T03:49:17.212Z,101182.50
2023-05-14T03:51:43.656Z,101192.34
2023-05-14T03:54:10.041Z,101187.16
2023-05-14T03:56:37.709Z,101192.38
2023-05-14T03:59:04.059Z,101190.97
2023-05-14T04:01:30.467Z,101190.28
2023-05-14T04:03:56.981Z,101182.22
2023-05-14T04:06:23.582Z,101179.31
2023-05-14T04:08:49.978Z,101187.53
2023-05-14T04:11:16.383Z,101187.31
2023-05-14T04:13:44.055Z,101189.31
2023-05-14T04:16:10.423Z,101184.53
2023-05-14T04:18:36.949Z,101183.81
2023-05-14T04:21:03.603Z,101188.72
2023-05-14T04:23:29.977Z,101188.81
2023-05-14T04:25:56.343Z,101188.41
2023-05-14T04:28:22.680Z,101188.13
2023-05-14T04:30:50.348Z,101187.31
2023-05-14T04:33:16.729Z,101176.59
2023-05-14T04:35:43.935Z,101176.84
2023-05-14T04:38:10.291Z,101174.50
2023-05-14T04:40:37.029Z,101175.63
2023-05-14T04:43:03.421Z,101175.66
2023-05-14T04:45:30.553Z,101177.59
2023-05-14T04:47:59.721Z,101178.06
2023-05-14T04:50:26.270Z,101182.41
2023-05-14T04:52:52.790Z,101184.34
2023-05-14T04:55:19.187Z,101188.63
2023-05-14T04:57:45.533Z,101185.41
2023-05-14T05:00:12.957Z,101188.94
2023-05-14T05:02:39.453Z,101187.19
2023-05-14T05:05:07.790Z,101182.28
2023-05-14T05:07:34.157Z,101185.06
2023-05-14T05:10:00.653Z,101185.44
2023-05-14T05:12:27.200Z,101192.34
2023-05-14T05:14:53.544Z,101187.63
2023-05-14T05:17:19.921Z,101199.78
2023-05-14T05:19:46.360Z,101197.91
2023-05-14T05:22:15.289Z,101189.88
2023-05-14T05:24:42.056Z,101189.13
2023-05-14T05:27:08.426Z,101182.59
2023-05-14T05:29:35.134Z,101190.66
2023-05-14T05:32:01.590Z,101184.31
2023-05-14T05:34:28.059Z,101187.09
2023-05-14T05:36:54.481Z,101180.75
2023-05-14T05:39:22.237Z,101179.31
2023-05-14T05:41:48.601Z,101184.63
2023-05-14T05:44:14.979Z,101177.25
2023-05-14T05:46:41.589Z,101183.16
2023-05-14T05:49:08.013Z,101185.94
2023-05-14T05:51:34.353Z,101174.25
2023-05-14T05:54:00.802Z,101178.34
2023-05-14T05:56:28.518Z,101181.03
2023-05-14T05:58:54.869Z,101173.13
2023-05-14T06:01:21.439Z,101178.53
2023-05-14T06:03:48.724Z,101183.81
2023-05-14T06:06:15.293Z,101181.41
2023-05-14T06:08:41.712Z,101184.19
2023-05-14T06:11:08.101Z,101186.38
2023-05-14T06:13:35.789Z,101189.00
2023-05-14T06:16:02.198Z,101184.69
2023-05-14T06:18:28.623Z,101186.03
2023-05-14T06:20:55.021Z,101187.09
2023-05-14T06:23:21.385Z,101186.88
2023-05-14T06:25:50.657Z,101194.66
2023-05-14T06:28:17.309Z,101192.66
2023-05-14T06:30:45.080Z,101187.63
2023-05-14T06:33:11.470Z,101177.88
2023-05-14T06:35:37.914Z,101185.78
2023-05-14T06:38:04.372Z,101185.59
2023-05-14T06:40:30.786Z,101193.31
2023-05-14T06:42:57.174Z,101196.91
2023-05-14T06:45:26.239Z,101189.78
2023-05-14T06:47:54.057Z,101183.03
2023-05-14T06:50:20.557Z,101186.53
2023-05-14T06:52:47.124Z,101187.75
2023-05-14T06:55:13.529Z,101187.34
2023-05-14T06:57:40.818Z,101185.88
2023-05-14T07:00:08.573Z,101185.25
2023-05-14T07:02:35.034Z,101182.34
2023-05-14T07:05:02.849Z,101178.69
2023-05-14T07:07:29.457Z,101177.84
2023-05-14T07:09:55.832Z,101172.69
2023-05-14T07:12:22.251Z,101172.06
2023-05-14T07:14:48.649Z,101166.66
2023-05-14T07:17:15.108Z,101174.13
2023-05-14T07:19:41.508Z,101168.28
2023-05-14T07:22:09.216Z,101163.88
2023-05-14T07:24:35.570Z,101177.84
2023-05-14T07:27:02.029Z,101169.47
2023-05-14T07:29:28.430Z,101160.28
2023-05-14T07:31:54.931Z,101162.78
2023-05-14T07:34:21.450Z,101156.41
2023-05-14T07:36:48.080Z,101149.97
2023-05-14T07:39:15.829Z,101151.50
2023-05-14T07:41:42.219Z,101141.59
2023-05-14T07:44:08.957Z,101147.97
2023-05-14T07:46:36.529Z,101151.97
2023-05-14T07:49:02.976Z,101145.75
2023-05-14T07:51:29.492Z,101146.44
2023-05-14T07:53:55.955Z,101143.38
2023-05-14T07:56:23.718Z,101142.84
2023-05-14T07:58:50.336Z,101139.91
2023-05-14T08:01:17.050Z,101143.06
2023-05-14T08:03:43.548Z,101146.22
2023-05-14T08:06:09.998Z,101138.72
2023-05-14T08:08:36.379Z,101141.69
2023-05-14T08:11:02.944Z,101136.03
2023-05-14T08:13:30.856Z,101132.66
2023-05-14T08:15:57.389Z,101136.50
2023-05-14T08:18:23.798Z,101140.13
2023-05-14T08:20:50.197Z,101132.88
2023-05-14T08:23:16.573Z,101138.00
2023-05-14T08:25:42.933Z,101138.03
2023-05-14T08:28:09.337Z,101130.03
2023-05-14T08:30:37.079Z,101132.38
2023-05-14T08:33:03.597Z,101133.69
2023-05-14T08:35:30.223Z,101131.41
2023-05-14T08:37:56.594Z,101127.00
2023-05-14T08:40:23.381Z,101119.56
2023-05-14T08:42:51.145Z,101128.41
2023-05-14T08:45:20.357Z,101107.22
2023-05-14T08:47:49.626Z,101120.16
2023-05-14T08:50:17.472Z,101109.16
2023-05-14T08:52:44.326Z,101113.63
2023-05-14T08:55:12.160Z,101108.56
2023-05-14T08:57:38.857Z,101100.16
2023-05-14T09:00:06.401Z,101099.72
2023-05-14T09:02:33.229Z,101107.19
2023-05-14T09:05:02.548Z,101100.25
2023-05-14T09:07:29.071Z,101100.63
2023-05-14T09:09:55.755Z,101105.66
2023-05-14T09:12:22.399Z,101102.41
2023-05-14T09:14:50.226Z,101103.38
2023-05-14T09:17:17.467Z,101103.06
2023-05-14T09:19:45.422Z,101094.31
2023-05-14T09:22:15.115Z,101091.84
2023-05-14T09:24:41.563Z,101094.56
2023-05-14T09:27:14.894Z,101092.91
2023-05-14T09:29:41.309Z,101094.41
2023-05-14T09:32:07.930Z,101083.63
2023-05-14T09:34:35.375Z,101083.16
2023-05-14T09:37:03.273Z,101085.59
2023-05-14T09:39:32.227Z,101073.97
2023-05-14T09:41:58.807Z,101069.16
2023-05-14T09:44:25.805Z,101065.38
2023-05-14T09:46:53.088Z,101071.56
2023-05-14T09:49:20.295Z,101069.41
2023-05-14T09:51:46.721Z,101068.91
2023-05-14T09:54:13.115Z,101057.47
2023-05-14T09:56:40.878Z,101058.97
2023-05-14T09:59:07.264Z,101055.63
2023-05-14T10:01:33.707Z,101053.75
2023-05-14T10:04:02.346Z,101052.31
2023-05-14T10:06:32.932Z,101043.53
2023-05-14T10:09:02.703Z,101042.28
2023-05-14T10:11:31.653Z,101047.94
2023-05-14T10:14:03.385Z,101049.53
2023-05-14T10:16:33.716Z,101046.00
2023-05-14T10:19:05.664Z,101039.66
2023-05-14T10:21:35.975Z,101038.88
2023-05-14T10:24:02.970Z,101039.31
2023-05-14T10:26:29.934Z,101025.69
2023-05-14T10:28:56.728Z,101027.19
2023-05-14T10:31:44.581Z,101032.31
2023-05-14T10:34:31.565Z,101026.44
2023-05-14T10:36:59.323Z,101022.56
2023-05-14T10:39:40.114Z,101016.97
2023-05-14T10:42:06.837Z,101018.66
2023-05-14T10:44:35.640Z,101016.25
2023-05-14T10:47:03.829Z,101013.94
2023-05-14T10:49:42.721Z,101010.38
2023-05-14T10:52:11.550Z,101002.06
2023-05-14T10:54:38.341Z,101009.25
2023-05-14T10:57:10.830Z,100997.50
2023-05-14T10:59:37.189Z,100999.75
2023-05-14T11:02:18.460Z,101002.97
2023-05-14T11:04:52.238Z,101000.75
2023-05-14T11:07:23.990Z,101004.91
2023-05-14T11:09:50.819Z,100992.06
2023-05-14T11:12:17.869Z,100988.38
2023-05-14T11:14:44.686Z,100986.22
2023-05-14T11:17:13.459Z,100979.97
2023-05-14T11:19:43.147Z,100987.81
2023-05-14T11:22:09.729Z,100985.31
2023-05-14T11:24:36.099Z,100971.59
2023-05-14T11:27:02.469Z,100976.91
2023-05-14T11:29:29.236Z,100973.69
2023-05-14T11:31:56.156Z,100971.56
2023-05-14T11:34:24.185Z,100964.63
2023-05-14T11:36:50.578Z,100959.56
2023-05-14T11:39:18.002Z,100954.13
2023-05-14T11:41:44.681Z,100955.69
2023-05-14T11:44:11.268Z,100960.19
2023-05-14T11:46:37.727Z,100964.34
2023-05-14T11:49:04.172Z,100961.09
2023-05-14T11:51:32.172Z,100949.25
2023-05-14T11:53:58.520Z,100946.81
2023-05-14T11:56:24.886Z,100943.94
2023-05-14T11:58:56.701Z,100940.03
2023-05-14T12:01:23.130Z,100944.06
2023-05-14T12:03:50.612Z,100938.19
2023-05-14T12:06:18.085Z,100945.06
2023-05-14T12:08:47.615Z,100934.25
2023-05-14T12:11:13.996Z,100931.09
2023-05-14T12:13:40.378Z,100925.44
2023-05-14T12:16:06.832Z,100924.16
2023-05-14T12:18:33.558Z,100924.66
2023-05-14T12:21:02.887Z,100923.16
2023-05-14T12:23:30.533Z,100913.66
2023-05-14T12:26:03.013Z,100913.38
2023-05-14T12:28:29.700Z,100918.72
2023-05-14T12:30:56.614Z,100915.03
2023-05-14T12:33:23.165Z,100905.84
2023-05-14T12:35:49.705Z,100907.88
2023-05-14T12:38:16.040Z,100890.38
2023-05-14T12:40:42.485Z,100894.16
2023-05-14T12:43:10.214Z,100888.69
2023-05-14T12:45:36.760Z,100885.84
2023-05-14T12:48:03.614Z,100880.50
2023-05-14T12:50:29.976Z,100879.19
2023-05-14T12:52:56.357Z,100884.78
2023-05-14T12:55:22.725Z,100880.50
2023-05-14T12:57:49.177Z,100876.56
2023-05-14T13:00:17.637Z,100876.00
2023-05-14T13:02:44.515Z,100872.31
2023-05-14T13:05:11.479Z,100862.66
2023-05-14T13:07:37.915Z,100867.59
2023-05-14T13:10:05.293Z,100867.13
2023-05-14T13:12:31.631Z,100863.63
2023-05-14T13:14:58.016Z,100855.47
2023-05-14T13:17:25.950Z,100861.31
2023-05-14T13:19:52.339Z,100851.34
2023-05-14T13:22:18.678Z,100845.66
2023-05-14T13:24:45.054Z,100847.59
2023-05-14T13:27:11.662Z,100836.88
2023-05-14T13:29:38.031Z,100836.03
2023-05-14T13:32:05.044Z,100835.03
2023-05-14T13:34:32.789Z,100830.44
2023-05-14T13:36:59.197Z,100832.31
2023-05-14T13:39:25.968Z,100835.31
2023-05-14T13:41:52.642Z,100834.47
2023-05-14T13:44:19.004Z,100838.28
2023-05-14T13:46:45.463Z,100836.13
2023-05-14T13:49:11.909Z,100841.31
2023-05-14T13:51:39.604Z,100827.41
2023-05-14T13:54:06.056Z,100829.34
2023-05-14T13:56:32.476Z,100828.16
2023-05-14T13:58:58.952Z,100834.50
2023-05-14T14:01:25.533Z,100828.75
2023-05-14T14:03:51.948Z,100816.69
2023-05-14T14:06:18.305Z,100821.50
2023-05-14T14:08:45.992Z,100821.66
2023-05-14T14:11:12.585Z,100822.22
2023-05-14T14:13:39.255Z,100822.94
2023-05-14T14:16:05.911Z,100812.03
2023-05-14T14:18:32.505Z,100815.94
2023-05-14T14:20:58.986Z,100818.06
2023-05-14T14:23:25.505Z,100809.88
2023-05-14T14:25:53.221Z,100823.34
2023-05-14T14:28:19.604Z,100809.34
2023-05-14T14:30:46.076Z,100814.25
2023-05-14T14:33:12.615Z,100814.22
2023-05-14T14:35:38.997Z,100821.06
2023-05-14T14:38:05.512Z,100810.50
2023-05-14T14:40:32.973Z,100802.81
2023-05-14T14:43:00.820Z,100810.47
2023-05-14T14:45:27.282Z,100807.34
2023-05-14T14:48:25.284Z,100797.78
2023-05-14T14:50:52.389Z,100800.44
2023-05-14T14:53:18.812Z,100806.41
2023-05-14T14:55:45.177Z,100798.63
2023-05-14T14:58:11.837Z,100783.75
2023-05-14T15:00:39.018Z,100796.63
2023-05-14T15:03:05.690Z,100792.00
2023-05-14T15:05:33.516Z,100796.16
2023-05-14T15:07:59.852Z,100789.94
2023-05-14T15:10:27.482Z,100786.78
2023-05-14T15:12:54.018Z,100784.88
2023-05-14T15:15:21.601Z,100786.03
2023-05-14T15:17:48.029Z,100793.69
2023-05-14T15:20:14.517Z,100787.31
2023-05-14T15:22:42.271Z,100791.63
2023-05-14T15:25:08.813Z,100793.31
2023-05-14T15:27:35.299Z,100779.72
2023-05-14T15:30:02.210Z,100790.97
2023-05-14T15:32:28.784Z,100778.75
2023-05-14T15:34:55.379Z,100782.16
2023-05-14T15:37:23.847Z,100785.38
2023-05-14T15:39:51.527Z,100780.00
2023-05-14T15:42:18.004Z,100778.88
2023-05-14T15:44:44.468Z,100777.50
2023-05-14T15:47:10.878Z,100767.53
2023-05-14T15:49:37.575Z,100772.47
2023-05-14T15:52:04.340Z,100773.75
2023-05-14T15:54:30.722Z,100767.06
2023-05-14T15:56:58.430Z,100764.63
2023-05-14T15:59:25.001Z,100760.66
2023-05-14T16:01:51.421Z,100755.19
2023-05-14T16:04:17.975Z,100749.03
2023-05-14T16:06:44.452Z,100753.00
2023-05-14T16:09:10.857Z,100750.22
2023-05-14T16:11:37.294Z,100746.06
2023-05-14T16:14:05.036Z,100734.72
2023-05-14T16:16:31.574Z,100741.44
2023-05-14T16:18:58.623Z,100740.94
2023-05-14T16:21:25.025Z,100733.91
2023-05-14T16:23:51.377Z,100731.38
2023-05-14T16:26:17.845Z,100732.47
2023-05-14T16:28:44.178Z,100733.78
2023-05-14T16:31:11.883Z,100737.22
2023-05-14T16:33:38.256Z,100737.81
2023-05-14T16:36:04.965Z,100733.13
2023-05-14T16:38:31.381Z,100731.91
2023-05-14T16:40:57.816Z,100735.94
2023-05-14T16:43:24.215Z,100730.34
2023-05-14T16:45:50.633Z,100718.84
2023-05-14T16:48:18.492Z,100721.28
2023-05-14T16:50:44.899Z,100725.13
2023-05-14T16:53:11.290Z,100715.34
2023-05-14T16:55:37.925Z,100724.09
2023-05-14T16:58:04.285Z,100720.63
2023-05-14T17:00:30.665Z,100714.78
2023-05-14T17:02:57.087Z,100708.13
2023-05-14T17:05:25.101Z,100709.34
2023-05-14T17:07:51.631Z,100711.03
2023-05-14T17:10:18.245Z,100713.56
2023-05-14T17:12:44.714Z,100715.56
2023-05-14T17:15:11.758Z,100715.41
2023-05-14T17:17:38.269Z,100708.97
2023-05-14T17:20:05.557Z,100706.22
2023-05-14T17:22:33.432Z,100707.09
2023-05-14T17:24:59.880Z,100706.88
2023-05-14T17:27:26.310Z,100705.59
2023-05-14T17:29:52.678Z,100712.72
2023-05-14T17:32:19.133Z,100707.53
2023-05-14T17:34:45.534Z,100704.06
2023-05-14T17:37:12.104Z,100706.88
2023-05-14T17:39:39.853Z,100701.47
2023-05-14T17:42:06.847Z,100714.63
2023-05-14T17:44:33.262Z,100711.03
2023-05-14T17:46:59.881Z,100704.94
2023-05-14T17:49:26.341Z,100704.44
2023-05-14T17:51:52.689Z,100705.97
2023-05-14T17:54:19.071Z,100714.06
2023-05-14T17:56:46.957Z,100706.97
2023-05-14T17:59:13.446Z,100701.88
2023-05-14T18:01:39.962Z,100710.41
2023-05-14T18:04:06.444Z,100713.31
2023-05-14T18:06:33.884Z,100707.50
2023-05-14T18:09:00.301Z,100714.97
2023-05-14T18:11:26.647Z,100711.13
2023-05-14T18:13:54.426Z,100714.13
2023-05-14T18:16:20.942Z,100715.09
2023-05-14T18:18:47.492Z,100714.81
2023-05-14T18:21:13.923Z,100717.09
2023-05-14T18:23:40.362Z,100722.16
2023-05-14T18:26:06.875Z,100713.69
2023-05-14T18:28:33.506Z,100716.81
2023-05-14T18:31:01.295Z,100719.84
2023-05-14T18:33:27.644Z,100720.91
2023-05-14T18:35:54.107Z,100717.94
2023-05-14T18:38:20.536Z,100718.59
2023-05-14T18:40:46.899Z,100728.38
2023-05-14T18:43:13.267Z,100716.03
2023-05-14T18:45:39.785Z,100715.63
2023-05-14T18:48:07.889Z,100715.16
2023-05-14T18:50:34.297Z,100724.47
2023-05-14T18:53:00.856Z,100722.41
2023-05-14T18:55:27.457Z,100722.41
2023-05-14T18:57:53.940Z,100722.34
2023-05-14T19:00:20.585Z,100721.25
2023-05-14T19:02:47.043Z,100730.19
2023-05-14T19:05:15.105Z,100727.06
2023-05-14T19:07:41.562Z,100729.41
2023-05-14T19:10:09.238Z,100727.84
2023-05-14T19:12:35.634Z,100721.56
2023-05-14T19:15:02.120Z,100723.47
2023-05-14T19:17:28.891Z,100724.03
2023-05-14T19:19:55.303Z,100727.03
2023-05-14T19:22:23.040Z,100730.72
2023-05-14T19:27:16.790Z,100727.44
2023-05-14T19:29:43.469Z,100730.63
2023-05-14T19:32:10.468Z,100732.50
2023-05-14T19:34:36.940Z,100732.69
2023-05-14T19:37:03.612Z,100727.50
2023-05-14T19:39:31.403Z,100725.63
2023-05-14T19:41:57.846Z,100734.28
2023-05-14T19:44:24.264Z,100721.16
2023-05-14T19:46:50.999Z,100733.03
2023-05-14T19:49:17.420Z,100722.16
2023-05-14T19:51:43.780Z,100720.19
2023-05-14T19:54:10.159Z,100722.31
2023-05-14T19:56:37.905Z,100722.63
2023-05-14T19:59:04.339Z,100720.59
2023-05-14T20:01:30.867Z,100716.75
2023-05-14T20:03:57.615Z,100724.22
2023-05-14T20:06:24.110Z,100720.66
2023-05-14T20:08:50.582Z,100717.28
2023-05-14T20:11:17.009Z,100726.38
2023-05-14T20:13:45.052Z,100723.91
2023-05-14T20:16:11.695Z,100717.41
2023-05-14T20:18:38.191Z,100730.78
2023-05-14T20:21:04.627Z,100725.41
2023-05-14T20:23:30.992Z,100723.50
2023-05-14T20:25:57.349Z,100719.84
2023-05-14T20:28:23.819Z,100722.03
2023-05-14T20:30:51.532Z,100723.03
2023-05-14T20:33:18.040Z,100731.03
2023-05-14T20:35:44.414Z,100719.88
2023-05-14T20:38:10.832Z,100717.66
2023-05-14T20:40:37.178Z,100706.97
2023-05-14T20:43:03.543Z,100709.56
2023-05-14T20:45:30.015Z,100706.09
2023-05-14T20:47:57.712Z,100707.63
2023-05-14T20:50:24.137Z,100698.63
2023-05-14T20:52:50.484Z,100708.69
2023-05-14T20:55:17.175Z,100700.34
2023-05-14T20:57:43.709Z,100702.13
2023-05-14T21:00:11.581Z,100701.88
2023-05-14T21:02:38.157Z,100699.19
2023-05-14T21:05:06.958Z,100696.03
2023-05-14T21:07:33.361Z,100702.97
2023-05-14T21:09:59.728Z,100693.94
2023-05-14T21:12:26.202Z,100695.47
2023-05-14T21:14:52.579Z,100679.66
2023-05-14T21:17:19.132Z,100689.00
2023-05-14T21:19:45.834Z,100684.81
2023-05-14T21:22:13.626Z,100681.72
2023-05-14T21:24:39.970Z,100682.56
2023-05-14T21:27:06.389Z,100683.38
2023-05-14T21:29:32.920Z,100674.59
2023-05-14T21:31:59.363Z,100679.63
2023-05-14T21:34:25.764Z,100674.75
2023-05-14T21:36:52.179Z,100678.88
2023-05-14T21:39:19.849Z,100674.94
2023-05-14T21:41:46.242Z,100672.38
2023-05-14T21:44:12.624Z,100670.31
2023-05-14T21:46:39.045Z,100666.66
2023-05-14T21:49:05.682Z,100664.22
2023-05-14T21:51:32.090Z,100662.06
2023-05-14T21:53:58.495Z,100665.56
2023-05-14T21:56:26.264Z,100661.28
2023-05-14T21:58:52.627Z,100652.50
2023-05-14T22:01:19.059Z,100658.63
2023-05-14T22:03:45.570Z,100653.94
2023-05-14T22:06:11.998Z,100654.38
2023-05-14T22:08:38.357Z,100647.94
2023-05-14T22:11:04.724Z,100654.81
2023-05-14T22:13:32.458Z,100653.13
2023-05-14T22:16:09.329Z,100649.22
2023-05-14T22:18:39.818Z,100652.53
2023-05-14T22:21:06.277Z,100652.50
2023-05-14T22:23:32.651Z,100646.34
2023-05-14T22:25:59.381Z,100648.34
2023-05-14T22:28:25.918Z,100646.53
2023-05-14T22:30:53.680Z,100642.34
2023-05-14T22:33:20.058Z,100640.25
2023-05-14T22:35:46.447Z,100639.41
2023-05-14T22:38:13.002Z,100635.59
2023-05-14T22:40:39.587Z,100630.75
2023-05-14T22:43:05.957Z,100634.72
2023-05-14T22:45:32.333Z,100628.47
2023-05-14T22:48:00.218Z,100625.22
2023-05-14T22:50:26.717Z,100625.72
2023-05-14T22:52:53.137Z,100627.19
2023-05-14T22:55:19.745Z,100620.16
2023-05-14T22:57:46.246Z,100625.00
2023-05-14T23:00:13.533Z,100626.91
2023-05-14T23:02:39.981Z,100621.34
2023-05-14T23:05:09.045Z,100622.59
2023-05-14T23:07:35.472Z,100627.50
2023-05-14T23:10:02.153Z,100620.44
2023-05-14T23:12:28.624Z,100616.19
2023-05-14T23:14:55.054Z,100622.06
2023-05-14T23:17:21.513Z,100620.97
2023-05-14T23:19:47.963Z,100617.13
2023-05-14T23:22:15.820Z,100616.16
2023-05-14T23:24:42.173Z,100610.66
2023-05-14T23:27:08.641Z,100617.50
2023-05-14T23:29:35.051Z,100611.28
2023-05-14T23:32:02.237Z,100600.25
2023-05-14T23:34:28.691Z,100604.59
2023-05-14T23:36:55.166Z,100600.69
2023-05-14T23:39:23.106Z,100596.03
2023-05-14T23:41:49.450Z,100593.09
2023-05-14T23:44:15.801Z,100584.72
2023-05-14T23:46:42.236Z,100596.44
2023-05-14T23:49:08.621Z,100582.31
2023-05-14T23:51:35.000Z,100587.72
2023-05-14T23:54:01.375Z,100576.75
2023-05-14T23:56:29.409Z,100577.69
2023-05-14T23:58:56.086Z,100580.13
